Terminal Aerodrome Forecast
Issued by NWS

Home | Current Version | Previous Version | Text Only | Print | Product List | Glossary Off
Versions: 1 2 3 4 5 6 7 8 9 10 11 12 13 14 15 16 17 18 19 20

000
FTUS42 KMHX 230547
TAFPGV
TAF
KPGV 230547Z 2306/2406 VRB03KT P6SM BKN045
     FM230930 00000KT 1SM BR BKN006 OVC015
     FM231100 03007KT 3SM BR OVC006
     FM231400 06005KT P6SM BKN008
     FM231500 06005KT P6SM BKN015
     FM231800 VRB04KT P6SM SCT050
      AMD LTD TO CLD VIS AND WIND=

USA.gov is the U.S. government's official web portal to all federal, state and local government web resources and services.